Valle Toledo, Valles Caldera, New Mexico Weather observations

Data are for 10 minute period ending at time listed.
 Day   Time   Solar   Ave.   Ave.  Ave.  Vector  Max.   Baro.   Total    
  of    of     Rad.   Air    Rel.  Wind   Wind   Wind  Press.  Precip.   
Year   Day            Temp.  Hum.  Speed  Dir.   Gust                    
2016   (MST)  Kw/m2    F      %     mph   deg.    mph    mb.     in.     
-------------------------------------------------------------------------
 243   16:30   0.07   53.8    78    1.6   324     3.6   738.1    0.00 
 243   16:40   0.07   53.8    77    0.0     0     0.0   738.1    0.00 
 243   16:50   0.08   54.0    78    0.9    58     5.4   738.1    0.00 
 243   17:00   0.07   53.9    73    1.3    33     4.2   737.9    0.00 
 243   17:10   0.07   53.9    73    1.3    56     3.6   737.9    0.00 
 243   17:20   0.06   53.7    76    0.4    55     2.4   737.9    0.00 
 243   17:30   0.07   53.0    78    2.0   132     6.0   737.9    0.00 
 243   17:40   0.06   52.5    80    1.8    90     4.2   737.9    0.00 
 243   17:50   0.05   52.8    81    0.3    44     2.4   737.9    0.00 
 243   18:00   0.04   52.8    81    0.2    45     3.6   738.0    0.00 
 243   18:10   0.03   51.9    82    2.5    39     4.8   738.1    0.00 
 243   18:20   0.02   51.0    82    0.2   355     3.0   738.1    0.00 
 243   18:30   0.01   50.4    82    0.0     0     0.0   737.8    0.00 
 243   18:40   0.01   49.6    84    2.2    36     4.8   737.8    0.00 
 243   18:50   0.00   49.1    86    0.9   108     4.2   738.0    0.00 
 243   19:00   0.00   49.0    85    1.3    38     4.8   738.0    0.00 
 243   19:10   0.00   48.2    87    3.0    36     4.8   738.0    0.00 
 243   19:20   0.00   47.9    88    3.3    36     4.8   738.1    0.00 
 243   19:30   0.00   49.2    86    2.0    60     6.0   738.2    0.00 
 243   19:40   0.00   48.9    85    1.9    34     4.2   738.3    0.00 
 243   19:50   0.00   48.4    87    0.3    35     3.0   738.4    0.00 
 243   20:00   0.00   48.3    88    0.0     0     0.0   738.5    0.00 
 243   20:10   0.00   48.3    88    0.9    39     4.2   738.6    0.00 
 243   20:20   0.00   48.0    88    2.9    35     4.2   738.6    0.00 
 243   20:30   0.00   47.6    88    2.1    41     3.6   738.6    0.00 
 243   20:40   0.00   47.2    89    0.4    36     2.4   738.7    0.00 
 243   20:50   0.00   47.1    89    1.4    37     3.0   738.8    0.00 
 243   21:00   0.00   47.4    90    0.6    69     3.6   738.8    0.00 
 243   21:10   0.00   48.6    88    0.6    55     4.2   738.8    0.00 
 243   21:20   0.00   48.4    86    0.0     0     0.0   738.9    0.00 
 243   21:30   0.00   47.6    88    0.2    38     3.0   738.9    0.00 
 243   21:40   0.00   47.1    89    1.3    35     4.2   738.9    0.00 
 243   21:50   0.00   47.2    90    0.7    38     3.0   738.9    0.00 
 243   22:00   0.00   47.4    91    0.0    29     1.2   739.0    0.00 
 243   22:10   0.00   47.9    91    0.5    42     2.4   739.0    0.00 
 243   22:20   0.00   48.1    91    0.4    34     2.4   738.9    0.00 
 243   22:30   0.00   48.0    91    0.6    30     3.0   738.9    0.00 
 243   22:40   0.00   48.0    91    0.0     0     0.0   738.9    0.00 
 243   22:50   0.00   48.0    91    0.1    39     2.4   738.9    0.00 
 243   23:00   0.00   47.8    91    2.1    40     3.6   738.9    0.00 
 243   23:10   0.00   47.4    91    1.4    33     3.6   738.9    0.00 
 243   23:20   0.00   47.1    91    0.6    40     2.4   738.9    0.00 
 243   23:30   0.00   46.9    91    1.9    36     3.6   738.9    0.00 
 243   23:40   0.00   46.5    91    0.4    34     3.0   738.9    0.00 
 243   23:50   0.00   46.5    91    0.2    41     3.0   738.8    0.00 
 244    0:00   0.00   46.3    91    0.2    28     1.8   738.8    0.00 
 244    0:10   0.00   46.1    91    0.0     0     0.0   738.8    0.00 
 244    0:20   0.00   45.9    91    1.1    37     3.0   738.7    0.00 
 244    0:30   0.00   45.7    91    1.0    34     3.0   738.7    0.00 
 244    0:40   0.00   46.0    92    0.7    41     3.0   738.7    0.00 
 244    0:50   0.00   46.4    92    0.1    42     1.8   738.6    0.00 
 244    1:00   0.00   46.9    92    0.1    40     1.8   738.6    0.00 
 244    1:10   0.00   47.4    92    0.0     0     0.0   738.6    0.00 
 244    1:20   0.00   48.0    92    0.0     0     0.0   738.6    0.00 
 244    1:30   0.00   48.2    92    0.0    95     1.2   738.6    0.00 
 244    1:40   0.00   48.3    92    0.0     0     0.0   738.6    0.00 
 244    1:50   0.00   48.3    92    0.0   150     1.2   738.6    0.00 
 244    2:00   0.00   48.1    92    0.0   142     1.2   738.7    0.00 
 244    2:10   0.00   47.9    92    0.4   146     2.4   738.7    0.00 
 244    2:20   0.00   47.9    92    0.8   114     4.8   738.7    0.00 
 244    2:30   0.00   47.9    92    0.0     0     0.0   738.6    0.00 
 244    2:40   0.00   47.9    91    0.1   103     2.4   738.5    0.00 
 244    2:50   0.00   47.9    91    0.0     0     0.0   738.3    0.00 
 244    3:00   0.00   47.9    91    0.0     0     0.0   738.3    0.00 
 244    3:10   0.00   47.8    91    0.0     0     0.0   738.3    0.00 
 244    3:20   0.00   47.7    90    0.0     0     0.0   738.3    0.00 
 244    3:30   0.00   47.7    90    0.0     0     0.0   738.2    0.00 
 244    3:40   0.00   47.5    90    0.0     0     0.0   738.2    0.00 
 244    3:50   0.00   47.5    90    0.0     0     0.0   738.3    0.00 
 244    4:00   0.00   47.4    90    0.0     0     0.0   738.2    0.00 
 244    4:10   0.00   47.3    90    0.0     0     0.0   738.2    0.00 
 244    4:20   0.00   47.3    90    0.0     0     0.0   738.1    0.00 
 244    4:30   0.00   47.1    90    0.2    22     2.4   738.2    0.00 
 244    4:40   0.00   46.8    90    0.0     0     0.0   738.2    0.00 
 244    4:50   0.00   46.3    90    0.3    26     3.0   738.1    0.00 
 244    5:00   0.00   45.4    90    0.2    25     1.8   738.1    0.00 
 244    5:10   0.00   44.5    90    2.3    30     3.0   738.1    0.00 
 244    5:20   0.00   43.7    90    2.7    36     3.6   738.2    0.00 
 244    5:30   0.00   43.3    90    2.7    38     3.6   738.2    0.00 
 244    5:40   0.00   43.0    91    2.5    41     3.6   738.1    0.00 
 244    5:50   0.01   43.0    91    0.3    41     1.8   738.1    0.00 
 244    6:00   0.01   43.1    91    1.1    36     3.0   738.2    0.00 
 244    6:10   0.01   43.1    92    1.5    37     2.4   738.2    0.00 
 244    6:20   0.01   43.5    92    0.3    33     2.4   738.3    0.00 
 244    6:30   0.03   43.8    92    0.0     0     0.0   738.4    0.00 
 244    6:40   0.06   44.5    92    0.0     0     0.0   738.4    0.00 
 244    6:50   0.12   45.5    93    0.2    80     1.8   738.4    0.00 
 244    7:00   0.21   48.4    93    0.0     0     0.0   738.4    0.00 
 244    7:10   0.24   51.8    82    0.1    34     1.8   738.4    0.00 
 244    7:20   0.27   54.8    72    0.0     0     0.0   738.5    0.00 
 244    7:30   0.30   55.7    69    0.1   149     2.4   738.6    0.00 
 244    7:40   0.34   53.1    75    0.0   145     1.8   738.7    0.00 
 244    7:50   0.37   53.7    76    0.2   188     3.0   738.6    0.00 
 244    8:00   0.40   54.1    73    1.4   177     4.2   738.7    0.00 
 244    8:10   0.43   55.3    71    0.8   168     3.0   738.8    0.00 
 244    8:20   0.47   56.5    69    1.7   199     5.4   738.9    0.00 
 244    8:30   0.50   56.5    71    0.9   199     4.8   738.9    0.00 
 244    8:40   0.53   59.8    63    1.4   195     4.2   739.0    0.00 
 244    8:50   0.55   58.7    62    0.9   220     4.8   739.0    0.00 
 244    9:00   0.58   58.2    65    2.8   251     6.0   739.1    0.00 
 244    9:10   0.63   58.7    64    3.2   210     7.2   739.1    0.00 
 244    9:20   0.49   59.8    62    2.3   146     6.0   739.1    0.00 
 244    9:30   0.50   59.0    64    2.3   228     6.0   739.1    0.00 
 244    9:40   0.39   59.9    61    0.6   171     4.2   739.1    0.00 
 244    9:50   0.17   58.6    63    2.0   139     4.2   739.1    0.00 
 244   10:00   0.17   58.4    63    0.2   159     3.6   739.1    0.00 
 244   10:10   0.16   58.8    64    0.5   235     3.0   739.1    0.00 
 244   10:20   0.15   58.4    65    1.1   184     4.2   739.1    0.00 
 244   10:30   0.12   58.5    64    0.0   273     1.2   739.1    0.02 
 244   10:40   0.11   56.6    71    2.7   132     6.6   739.1    0.08 
 244   10:50   0.10   53.8    77    5.6   108    10.2   739.1    0.04 
 244   11:00   0.10   51.0    82    7.3    82    12.5   739.1    0.06 
 244   11:10   0.10   50.2    87    3.2    46     6.0   739.0    0.05 
 244   11:20   0.14   50.9    88    0.7    44     3.6   739.0    0.00 
 244   11:30   0.21   51.9    87    0.6   100     3.6   738.8    0.01 
 244   11:40   0.28   53.1    80    0.4   108     3.0   738.7    0.00 
 244   11:50   0.28   54.5    74    0.2   147     2.4   738.7    0.00 
 244   12:00   0.39   55.4    71    0.9   142     5.4   738.8    0.00 
 244   12:10   0.75   56.7    66    0.7   150     3.6   738.8    0.00 
 244   12:20   0.87   58.4    64    2.0   158     6.0   738.7    0.00 
 244   12:30   0.37   58.2    63    2.5   203     4.8   738.6    0.00 
 244   12:40   0.94   59.1    63    0.9   257     4.2   738.6    0.00 
 244   12:50   0.80   61.5    55    1.8   231     5.4   738.5    0.00 
 244   13:00   0.28   61.4    52    2.2   340     4.8   738.4    0.00 
 244   13:10   0.46   61.6    55    3.3   354     5.4   738.4    0.00 
 244   13:20   0.85   63.4    52    2.4    48     4.8   738.3    0.00 
 244   13:30   0.81   65.0    48    2.7   194     5.4   738.2    0.00 
 244   13:40   0.70   64.3    48    3.3   140     6.6   738.1    0.00 
 244   13:50   0.61   63.9    50    4.1   232     7.2   738.0    0.00 
 244   14:00   0.71   64.7    47    3.6   182     7.2   737.9    0.00 
 244   14:10   0.61   64.7    48    3.9   234     9.6   737.9    0.00 
 244   14:20   0.44   63.5    54    5.5   254     9.0   737.8    0.00 
 244   14:30   0.66   62.8    60    5.3   244     9.0   737.8    0.00 
 244   14:40   0.59   62.8    56    6.1   255    10.2   737.8    0.00 
 244   14:50   0.64   62.5    59    6.1   250     9.6   737.7    0.00 
 244   15:00   0.40   62.7    60    4.4   254     6.6   737.7    0.00 
 244   15:10   0.35   62.0    59    3.9   225     7.2   737.6    0.00 
 244   15:20   0.47   62.6    57    3.8   206     7.2   737.5    0.00 
 244   15:30   0.57   64.6    54    3.9   246     8.4   737.4    0.00 
 244   15:40   0.41   64.4    49    3.3   213     6.6   737.3    0.00 
 244   15:50   0.40   64.4    54    3.3   237     6.0   737.3    0.00 
 244   16:00   0.45   63.8    56    5.6   246     9.0   737.3    0.00 
 244   16:10   0.22   62.5    56    3.8   252     8.4   737.3    0.00 
 244   16:20   0.41   64.1    53    2.9    35     5.4   737.3    0.00 

Return to Valle Toledo, Valles Caldera graphs page.


Western Regional Climate Center,wrcc@dri.edu